sensor_id;sensor_type;location;lat;lon;timestamp;pressure;altitude;pressure_sealevel;temperature;humidity
38912;BME280;28444;48.056;14.408;2023-12-20T00:01:31;97637.81;;;-0.22;100.00
38912;BME280;28444;48.056;14.408;2023-12-20T00:03:58;97633.91;;;-0.21;100.00
38912;BME280;28444;48.056;14.408;2023-12-20T00:06:25;97627.06;;;-0.22;100.00
38912;BME280;28444;48.056;14.408;2023-12-20T00:08:52;97629.75;;;-0.17;100.00
38912;BME280;28444;48.056;14.408;2023-12-20T00:11:19;97624.13;;;-0.08;100.00
38912;BME280;28444;48.056;14.408;2023-12-20T00:13:45;97625.63;;;-0.07;100.00
38912;BME280;28444;48.056;14.408;2023-12-20T00:16:17;97619.00;;;-0.06;100.00
38912;BME280;28444;48.056;14.408;2023-12-20T00:18:44;97619.75;;;-0.05;100.00
38912;BME280;28444;48.056;14.408;2023-12-20T00:21:11;97633.66;;;0.10;100.00
38912;BME280;28444;48.056;14.408;2023-12-20T00:23:38;97624.41;;;0.00;100.00
38912;BME280;28444;48.056;14.408;2023-12-20T00:26:04;97619.75;;;0.01;100.00
38912;BME280;28444;48.056;14.408;2023-12-20T00:28:31;97619.97;;;0.03;100.00
38912;BME280;28444;48.056;14.408;2023-12-20T00:30:57;97619.03;;;0.00;100.00
38912;BME280;28444;48.056;14.408;2023-12-20T00:33:24;97607.03;;;0.12;100.00
38912;BME280;28444;48.056;14.408;2023-12-20T00:35:51;97611.91;;;0.25;100.00
38912;BME280;28444;48.056;14.408;2023-12-20T00:38:18;97605.53;;;0.39;100.00
38912;BME280;28444;48.056;14.408;2023-12-20T00:40:44;97611.13;;;0.69;100.00
38912;BME280;28444;48.056;14.408;2023-12-20T00:43:11;97600.31;;;0.81;98.69
38912;BME280;28444;48.056;14.408;2023-12-20T00:45:38;97594.09;;;1.03;97.38
38912;BME280;28444;48.056;14.408;2023-12-20T00:48:05;97592.53;;;1.24;95.33
38912;BME280;28444;48.056;14.408;2023-12-20T00:50:33;97583.69;;;1.29;95.25
38912;BME280;28444;48.056;14.408;2023-12-20T00:52:59;97595.41;;;1.37;94.71
38912;BME280;28444;48.056;14.408;2023-12-20T00:55:26;97590.00;;;1.37;94.50
38912;BME280;28444;48.056;14.408;2023-12-20T00:57:53;97589.59;;;1.28;95.20
38912;BME280;28444;48.056;14.408;2023-12-20T01:00:20;97585.19;;;1.25;94.94
38912;BME280;28444;48.056;14.408;2023-12-20T01:02:48;97583.94;;;1.31;95.46
38912;BME280;28444;48.056;14.408;2023-12-20T01:05:16;97576.34;;;1.30;95.21
38912;BME280;28444;48.056;14.408;2023-12-20T01:07:44;97567.25;;;1.33;95.55
38912;BME280;28444;48.056;14.408;2023-12-20T01:10:11;97566.72;;;1.40;94.09
38912;BME280;28444;48.056;14.408;2023-12-20T01:12:37;97557.91;;;1.39;94.30
38912;BME280;28444;48.056;14.408;2023-12-20T01:15:04;97553.22;;;1.46;93.46
38912;BME280;28444;48.056;14.408;2023-12-20T01:17:31;97547.09;;;1.45;93.77
38912;BME280;28444;48.056;14.408;2023-12-20T01:19:58;97545.34;;;1.48;93.15
38912;BME280;28444;48.056;14.408;2023-12-20T01:22:25;97536.03;;;1.49;93.45
38912;BME280;28444;48.056;14.408;2023-12-20T01:24:51;97537.53;;;1.44;93.58
38912;BME280;28444;48.056;14.408;2023-12-20T01:27:18;97530.91;;;1.45;93.33
38912;BME280;28444;48.056;14.408;2023-12-20T01:29:45;97524.78;;;1.44;92.98
38912;BME280;28444;48.056;14.408;2023-12-20T01:32:11;97523.09;;;1.41;92.88
38912;BME280;28444;48.056;14.408;2023-12-20T01:34:38;97523.34;;;1.43;93.23
38912;BME280;28444;48.056;14.408;2023-12-20T01:37:05;97522.34;;;1.47;93.99
38912;BME280;28444;48.056;14.408;2023-12-20T01:39:31;97517.03;;;1.35;94.30
38912;BME280;28444;48.056;14.408;2023-12-20T01:41:58;97508.75;;;1.28;95.17
38912;BME280;28444;48.056;14.408;2023-12-20T01:44:25;97504.81;;;1.29;95.58
38912;BME280;28444;48.056;14.408;2023-12-20T01:46:51;97501.63;;;1.30;95.37
38912;BME280;28444;48.056;14.408;2023-12-20T01:49:18;97493.78;;;1.32;95.70
38912;BME280;28444;48.056;14.408;2023-12-20T01:51:46;97486.94;;;1.26;96.10
38912;BME280;28444;48.056;14.408;2023-12-20T01:54:13;97482.56;;;1.23;95.90
38912;BME280;28444;48.056;14.408;2023-12-20T01:56:40;97483.81;;;1.16;97.04
38912;BME280;28444;48.056;14.408;2023-12-20T01:59:07;97480.91;;;1.14;96.52
38912;BME280;28444;48.056;14.408;2023-12-20T02:01:35;97481.88;;;1.16;96.84
38912;BME280;28444;48.056;14.408;2023-12-20T02:04:03;97478.06;;;1.36;94.97
38912;BME280;28444;48.056;14.408;2023-12-20T02:06:30;97482.38;;;1.51;91.39
38912;BME280;28444;48.056;14.408;2023-12-20T02:09:00;97476.44;;;1.58;91.16
38912;BME280;28444;48.056;14.408;2023-12-20T02:11:27;97479.84;;;1.58;91.74
38912;BME280;28444;48.056;14.408;2023-12-20T02:13:55;97473.63;;;1.69;90.99
38912;BME280;28444;48.056;14.408;2023-12-20T02:16:22;97466.22;;;1.75;90.11
38912;BME280;28444;48.056;14.408;2023-12-20T02:18:49;97470.34;;;1.82;88.19
38912;BME280;28444;48.056;14.408;2023-12-20T02:21:16;97460.91;;;1.94;85.61
38912;BME280;28444;48.056;14.408;2023-12-20T02:23:42;97458.88;;;2.00;84.77
38912;BME280;28444;48.056;14.408;2023-12-20T02:26:09;97447.47;;;2.13;84.66
38912;BME280;28444;48.056;14.408;2023-12-20T02:28:37;97449.31;;;2.24;84.93
38912;BME280;28444;48.056;14.408;2023-12-20T02:31:04;97455.00;;;2.39;81.69
38912;BME280;28444;48.056;14.408;2023-12-20T02:33:30;97451.31;;;2.42;83.16
38912;BME280;28444;48.056;14.408;2023-12-20T02:35:57;97444.44;;;2.41;83.66
38912;BME280;28444;48.056;14.408;2023-12-20T02:38:24;97447.22;;;2.35;83.99
38912;BME280;28444;48.056;14.408;2023-12-20T02:41:00;97435.91;;;2.37;82.53
38912;BME280;28444;48.056;14.408;2023-12-20T02:43:28;97440.59;;;2.36;84.55
38912;BME280;28444;48.056;14.408;2023-12-20T02:45:55;97439.41;;;2.32;82.44
38912;BME280;28444;48.056;14.408;2023-12-20T02:48:22;97424.41;;;2.36;82.42
38912;BME280;28444;48.056;14.408;2023-12-20T02:50:49;97426.72;;;2.27;85.23
38912;BME280;28444;48.056;14.408;2023-12-20T02:53:15;97420.28;;;2.11;87.38
38912;BME280;28444;48.056;14.408;2023-12-20T02:55:42;97416.34;;;1.87;88.91
38912;BME280;28444;48.056;14.408;2023-12-20T02:58:09;97406.69;;;1.73;90.06
38912;BME280;28444;48.056;14.408;2023-12-20T03:00:36;97409.00;;;1.63;91.11
38912;BME280;28444;48.056;14.408;2023-12-20T03:03:03;97412.91;;;1.62;91.62
38912;BME280;28444;48.056;14.408;2023-12-20T03:05:30;97411.66;;;1.39;93.59
38912;BME280;28444;48.056;14.408;2023-12-20T03:07:56;97400.25;;;1.27;93.96
38912;BME280;28444;48.056;14.408;2023-12-20T03:10:23;97408.41;;;1.16;95.51
38912;BME280;28444;48.056;14.408;2023-12-20T03:12:53;97401.47;;;0.90;96.97
38912;BME280;28444;48.056;14.408;2023-12-20T03:15:19;97396.78;;;0.61;97.94
38912;BME280;28444;48.056;14.408;2023-12-20T03:17:46;97395.13;;;0.52;99.23
38912;BME280;28444;48.056;14.408;2023-12-20T03:20:13;97397.94;;;0.24;100.00
38912;BME280;28444;48.056;14.408;2023-12-20T03:22:40;97406.25;;;0.20;100.00
38912;BME280;28444;48.056;14.408;2023-12-20T03:25:07;97399.66;;;0.21;100.00
38912;BME280;28444;48.056;14.408;2023-12-20T03:27:37;97407.06;;;-0.02;100.00
38912;BME280;28444;48.056;14.408;2023-12-20T03:30:04;97408.59;;;-0.17;100.00
38912;BME280;28444;48.056;14.408;2023-12-20T03:32:31;97409.56;;;-0.20;100.00
38912;BME280;28444;48.056;14.408;2023-12-20T03:34:58;97399.28;;;-0.22;100.00
38912;BME280;28444;48.056;14.408;2023-12-20T03:37:25;97404.91;;;-0.14;100.00
38912;BME280;28444;48.056;14.408;2023-12-20T03:39:51;97400.78;;;-0.21;100.00
38912;BME280;28444;48.056;14.408;2023-12-20T03:42:18;97403.47;;;-0.27;100.00
38912;BME280;28444;48.056;14.408;2023-12-20T03:44:45;97391.25;;;-0.28;100.00
38912;BME280;28444;48.056;14.408;2023-12-20T03:47:11;97404.44;;;-0.24;100.00
38912;BME280;28444;48.056;14.408;2023-12-20T03:49:38;97402.25;;;-0.20;100.00
38912;BME280;28444;48.056;14.408;2023-12-20T03:52:05;97400.53;;;-0.23;100.00
38912;BME280;28444;48.056;14.408;2023-12-20T03:54:34;97409.56;;;-0.20;100.00
38912;BME280;28444;48.056;14.408;2023-12-20T03:57:01;97406.38;;;-0.13;100.00
38912;BME280;28444;48.056;14.408;2023-12-20T03:59:28;97407.88;;;-0.29;100.00
38912;BME280;28444;48.056;14.408;2023-12-20T04:01:54;97407.13;;;-0.30;100.00
38912;BME280;28444;48.056;14.408;2023-12-20T04:04:21;97409.78;;;-0.18;100.00
38912;BME280;28444;48.056;14.408;2023-12-20T04:06:48;97409.53;;;-0.09;100.00
38912;BME280;28444;48.056;14.408;2023-12-20T04:09:15;97396.09;;;-0.04;100.00
38912;BME280;28444;48.056;14.408;2023-12-20T04:11:41;97392.19;;;-0.08;100.00
38912;BME280;28444;48.056;14.408;2023-12-20T04:14:08;97394.88;;;-0.03;100.00
38912;BME280;28444;48.056;14.408;2023-12-20T04:16:35;97388.22;;;0.10;100.00
38912;BME280;28444;48.056;14.408;2023-12-20T04:19:01;97383.56;;;0.10;100.00
38912;BME280;28444;48.056;14.408;2023-12-20T04:21:29;97385.34;;;-0.04;100.00
38912;BME280;28444;48.056;14.408;2023-12-20T04:23:56;97389.00;;;-0.07;100.00
38912;BME280;28444;48.056;14.408;2023-12-20T04:26:22;97390.72;;;-0.09;100.00
38912;BME280;28444;48.056;14.408;2023-12-20T04:28:49;97394.88;;;-0.03;100.00
38912;BME280;28444;48.056;14.408;2023-12-20T04:31:19;97378.47;;;0.01;100.00
38912;BME280;28444;48.056;14.408;2023-12-20T04:33:46;97387.97;;;0.08;100.00
38912;BME280;28444;48.056;14.408;2023-12-20T04:36:13;97391.63;;;0.16;100.00
38912;BME280;28444;48.056;14.408;2023-12-20T04:38:39;97389.91;;;0.13;100.00
38912;BME280;28444;48.056;14.408;2023-12-20T04:41:06;97399.91;;;0.18;100.00
38912;BME280;28444;48.056;14.408;2023-12-20T04:43:33;97404.06;;;0.19;100.00
38912;BME280;28444;48.056;14.408;2023-12-20T04:45:59;97399.91;;;0.23;100.00
38912;BME280;28444;48.056;14.408;2023-12-20T04:48:27;97398.13;;;0.32;100.00
38912;BME280;28444;48.056;14.408;2023-12-20T04:50:54;97391.31;;;0.31;100.00
38912;BME280;28444;48.056;14.408;2023-12-20T04:53:21;97388.31;;;0.40;100.00
38912;BME280;28444;48.056;14.408;2023-12-20T04:55:47;97398.78;;;0.49;100.00
38912;BME280;28444;48.056;14.408;2023-12-20T04:58:14;97399.03;;;0.51;100.00
38912;BME280;28444;48.056;14.408;2023-12-20T05:00:41;97402.66;;;0.59;100.00
38912;BME280;28444;48.056;14.408;2023-12-20T05:03:08;97410.72;;;0.59;100.00
38912;BME280;28444;48.056;14.408;2023-12-20T05:05:36;97403.91;;;0.53;100.00
38912;BME280;28444;48.056;14.408;2023-12-20T05:08:03;97414.41;;;0.56;100.00
38912;BME280;28444;48.056;14.408;2023-12-20T05:10:30;97403.91;;;0.53;100.00
38912;BME280;28444;48.056;14.408;2023-12-20T05:12:58;97418.81;;;0.59;100.00
38912;BME280;28444;48.056;14.408;2023-12-20T05:15:29;97413.19;;;0.57;100.00
38912;BME280;28444;48.056;14.408;2023-12-20T05:17:58;97418.75;;;0.65;100.00
38912;BME280;28444;48.056;14.408;2023-12-20T05:20:25;97426.31;;;0.72;100.00
38912;BME280;28444;48.056;14.408;2023-12-20T05:22:52;97428.53;;;0.74;100.00
38912;BME280;28444;48.056;14.408;2023-12-20T05:25:19;97437.00;;;0.83;100.00
38912;BME280;28444;48.056;14.408;2023-12-20T05:27:45;97441.38;;;0.92;100.00
38912;BME280;28444;48.056;14.408;2023-12-20T05:30:13;97455.50;;;1.39;94.73
38912;BME280;28444;48.056;14.408;2023-12-20T05:32:40;97467.66;;;1.52;95.74
38912;BME280;28444;48.056;14.408;2023-12-20T05:35:07;97485.56;;;1.49;95.71
38912;BME280;28444;48.056;14.408;2023-12-20T05:37:34;97487.13;;;1.39;97.24
38912;BME280;28444;48.056;14.408;2023-12-20T05:40:00;97495.94;;;1.34;98.42
38912;BME280;28444;48.056;14.408;2023-12-20T05:42:27;97488.13;;;1.30;97.90
38912;BME280;28444;48.056;14.408;2023-12-20T05:44:54;97491.81;;;1.33;98.02
38912;BME280;28444;48.056;14.408;2023-12-20T05:47:24;97493.22;;;1.39;96.78
38912;BME280;28444;48.056;14.408;2023-12-20T05:49:51;97489.34;;;1.35;96.65
38912;BME280;28444;48.056;14.408;2023-12-20T05:52:17;97482.94;;;1.38;96.58
38912;BME280;28444;48.056;14.408;2023-12-20T05:54:44;97478.03;;;1.42;95.92
38912;BME280;28444;48.056;14.408;2023-12-20T05:57:11;97478.50;;;1.46;95.49
38912;BME280;28444;48.056;14.408;2023-12-20T05:59:38;97469.34;;;1.55;95.30
38912;BME280;28444;48.056;14.408;2023-12-20T06:02:07;97473.97;;;1.60;94.77
38912;BME280;28444;48.056;14.408;2023-12-20T06:04:34;97481.56;;;1.56;95.74
38912;BME280;28444;48.056;14.408;2023-12-20T06:07:02;97490.22;;;1.49;95.91
38912;BME280;28444;48.056;14.408;2023-12-20T06:09:30;97487.75;;;1.51;95.47
38912;BME280;28444;48.056;14.408;2023-12-20T06:11:57;97471.31;;;1.54;95.40
38912;BME280;28444;48.056;14.408;2023-12-20T06:14:24;97479.34;;;1.90;92.66
38912;BME280;28444;48.056;14.408;2023-12-20T06:16:51;97480.69;;;2.02;92.48
38912;BME280;28444;48.056;14.408;2023-12-20T06:19:17;97465.75;;;2.01;93.69
38912;BME280;28444;48.056;14.408;2023-12-20T06:21:44;97464.56;;;1.97;94.81
38912;BME280;28444;48.056;14.408;2023-12-20T06:24:11;97457.97;;;1.92;94.84
38912;BME280;28444;48.056;14.408;2023-12-20T06:26:37;97447.66;;;1.96;94.38
38912;BME280;28444;48.056;14.408;2023-12-20T06:29:04;97458.13;;;2.00;94.77
38912;BME280;28444;48.056;14.408;2023-12-20T06:31:31;97459.38;;;1.99;94.44
38912;BME280;28444;48.056;14.408;2023-12-20T06:33:59;97474.31;;;2.00;94.91
38912;BME280;28444;48.056;14.408;2023-12-20T06:36:26;97470.63;;;2.03;94.58
38912;BME280;28444;48.056;14.408;2023-12-20T06:38:53;97474.56;;;2.02;95.07
38912;BME280;28444;48.056;14.408;2023-12-20T06:41:20;97466.13;;;2.11;95.14
38912;BME280;28444;48.056;14.408;2023-12-20T06:43:47;97471.91;;;2.21;94.37
38912;BME280;28444;48.056;14.408;2023-12-20T06:46:16;97472.88;;;2.23;94.40
38912;BME280;28444;48.056;14.408;2023-12-20T06:48:43;97471.41;;;2.22;94.21
38912;BME280;28444;48.056;14.408;2023-12-20T06:51:15;97496.16;;;2.26;94.54
38912;BME280;28444;48.056;14.408;2023-12-20T06:53:42;97498.84;;;2.26;94.67
38912;BME280;28444;48.056;14.408;2023-12-20T06:56:10;97495.41;;;2.26;94.89
38912;BME280;28444;48.056;14.408;2023-12-20T06:58:39;97505.69;;;2.27;94.17
38912;BME280;28444;48.056;14.408;2023-12-20T07:01:13;97489.50;;;2.71;92.67
38912;BME280;28444;48.056;14.408;2023-12-20T07:03:40;97495.91;;;3.24;90.06
38912;BME280;28444;48.056;14.408;2023-12-20T07:06:08;97512.56;;;3.60;89.79
38912;BME280;28444;48.056;14.408;2023-12-20T07:08:34;97537.94;;;3.90;89.38
38912;BME280;28444;48.056;14.408;2023-12-20T07:11:01;97531.00;;;4.07;89.65
38912;BME280;28444;48.056;14.408;2023-12-20T07:13:28;97535.78;;;4.15;89.77
38912;BME280;28444;48.056;14.408;2023-12-20T07:15:56;97544.53;;;4.21;90.32
38912;BME280;28444;48.056;14.408;2023-12-20T07:18:22;97535.69;;;4.20;90.20
38912;BME280;28444;48.056;14.408;2023-12-20T07:20:49;97539.84;;;4.08;91.62
38912;BME280;28444;48.056;14.408;2023-12-20T07:23:16;97539.94;;;4.02;91.69
38912;BME280;28444;48.056;14.408;2023-12-20T07:25:42;97538.47;;;4.01;92.09
38912;BME280;28444;48.056;14.408;2023-12-20T07:28:09;97544.09;;;4.03;91.63
38912;BME280;28444;48.056;14.408;2023-12-20T07:30:36;97551.69;;;4.05;91.95
38912;BME280;28444;48.056;14.408;2023-12-20T07:33:03;97566.75;;;3.87;93.73
38912;BME280;28444;48.056;14.408;2023-12-20T07:35:29;97569.03;;;3.83;95.12
38912;BME280;28444;48.056;14.408;2023-12-20T07:37:56;97571.00;;;3.82;96.18
38912;BME280;28444;48.056;14.408;2023-12-20T07:40:23;97571.22;;;3.84;97.12
38912;BME280;28444;48.056;14.408;2023-12-20T07:42:50;97573.66;;;3.69;99.10
38912;BME280;28444;48.056;14.408;2023-12-20T07:45:17;97580.81;;;3.67;100.00
38912;BME280;28444;48.056;14.408;2023-12-20T07:47:43;97574.13;;;3.54;100.00
38912;BME280;28444;48.056;14.408;2023-12-20T07:50:11;97592.38;;;3.48;100.00
38912;BME280;28444;48.056;14.408;2023-12-20T07:52:38;97588.22;;;3.47;100.00
38912;BME280;28444;48.056;14.408;2023-12-20T07:55:05;97596.19;;;3.40;100.00
38912;BME280;28444;48.056;14.408;2023-12-20T07:57:31;97601.91;;;3.36;100.00
38912;BME280;28444;48.056;14.408;2023-12-20T07:59:58;97606.94;;;3.26;100.00
38912;BME280;28444;48.056;14.408;2023-12-20T08:02:25;97603.00;;;3.27;100.00
38912;BME280;28444;48.056;14.408;2023-12-20T08:04:51;97610.44;;;3.21;100.00
38912;BME280;28444;48.056;14.408;2023-12-20T08:07:18;97615.34;;;3.23;100.00
38912;BME280;28444;48.056;14.408;2023-12-20T08:09:44;97619.56;;;3.18;100.00
38912;BME280;28444;48.056;14.408;2023-12-20T08:12:11;97619.38;;;3.16;100.00
38912;BME280;28444;48.056;14.408;2023-12-20T08:14:38;97625.94;;;3.21;100.00
38912;BME280;28444;48.056;14.408;2023-12-20T08:17:04;97622.84;;;3.11;100.00
38912;BME280;28444;48.056;14.408;2023-12-20T08:19:31;97632.13;;;3.16;100.00
38912;BME280;28444;48.056;14.408;2023-12-20T08:21:58;97632.06;;;3.21;100.00
38912;BME280;28444;48.056;14.408;2023-12-20T08:24:24;97632.78;;;3.22;100.00
38912;BME280;28444;48.056;14.408;2023-12-20T08:26:51;97634.25;;;3.23;100.00
38912;BME280;28444;48.056;14.408;2023-12-20T08:29:18;97627.34;;;3.27;100.00
38912;BME280;28444;48.056;14.408;2023-12-20T08:31:45;97636.81;;;3.15;100.00
38912;BME280;28444;48.056;14.408;2023-12-20T08:34:13;97637.53;;;3.16;100.00
38912;BME280;28444;48.056;14.408;2023-12-20T08:36:41;97642.22;;;3.15;100.00
38912;BME280;28444;48.056;14.408;2023-12-20T08:39:08;97646.88;;;3.14;100.00
38912;BME280;28444;48.056;14.408;2023-12-20T08:41:35;97644.19;;;3.14;100.00
38912;BME280;28444;48.056;14.408;2023-12-20T08:44:02;97649.25;;;3.24;100.00
38912;BME280;28444;48.056;14.408;2023-12-20T08:46:28;97646.53;;;3.24;100.00
38912;BME280;28444;48.056;14.408;2023-12-20T08:48:55;97648.53;;;3.23;100.00
38912;BME280;28444;48.056;14.408;2023-12-20T08:51:23;97659.25;;;3.29;100.00
38912;BME280;28444;48.056;14.408;2023-12-20T08:53:52;97654.84;;;3.26;100.00
38912;BME280;28444;48.056;14.408;2023-12-20T08:56:19;97649.00;;;3.22;100.00
38912;BME280;28444;48.056;14.408;2023-12-20T08:58:46;97662.53;;;3.22;100.00
38912;BME280;28444;48.056;14.408;2023-12-20T09:01:14;97660.84;;;3.19;100.00
38912;BME280;28444;48.056;14.408;2023-12-20T09:03:41;97650.56;;;3.17;100.00
38912;BME280;28444;48.056;14.408;2023-12-20T09:06:08;97655.09;;;3.28;100.00
38912;BME280;28444;48.056;14.408;2023-12-20T09:08:35;97654.41;;;3.22;100.00
38912;BME280;28444;48.056;14.408;2023-12-20T09:11:02;97648.00;;;3.25;100.00
38912;BME280;28444;48.056;14.408;2023-12-20T09:13:29;97655.38;;;3.24;100.00
38912;BME280;28444;48.056;14.408;2023-12-20T09:15:56;97653.19;;;3.23;100.00
38912;BME280;28444;48.056;14.408;2023-12-20T09:18:23;97656.91;;;3.20;100.00
38912;BME280;28444;48.056;14.408;2023-12-20T09:20:50;97656.97;;;3.14;100.00
38912;BME280;28444;48.056;14.408;2023-12-20T09:23:17;97650.25;;;3.21;100.00
38912;BME280;28444;48.056;14.408;2023-12-20T09:25:44;97651.50;;;3.20;100.00
38912;BME280;28444;48.056;14.408;2023-12-20T09:28:11;97656.34;;;3.27;100.00
38912;BME280;28444;48.056;14.408;2023-12-20T09:30:38;97654.00;;;3.36;100.00
38912;BME280;28444;48.056;14.408;2023-12-20T09:33:07;97648.88;;;3.33;100.00
38912;BME280;28444;48.056;14.408;2023-12-20T09:35:34;97647.19;;;3.30;100.00
38912;BME280;28444;48.056;14.408;2023-12-20T09:38:01;97648.16;;;3.32;100.00
38912;BME280;28444;48.056;14.408;2023-12-20T09:40:28;97644.56;;;3.43;100.00
38912;BME280;28444;48.056;14.408;2023-12-20T09:43:04;97641.53;;;3.52;100.00
38912;BME280;28444;48.056;14.408;2023-12-20T09:45:31;97639.69;;;3.60;100.00
38912;BME280;28444;48.056;14.408;2023-12-20T09:47:58;97633.47;;;3.66;100.00
38912;BME280;28444;48.056;14.408;2023-12-20T09:50:26;97622.44;;;3.64;100.00
38912;BME280;28444;48.056;14.408;2023-12-20T09:52:53;97620.22;;;3.62;100.00
38912;BME280;28444;48.056;14.408;2023-12-20T09:55:24;97614.63;;;3.60;100.00
38912;BME280;28444;48.056;14.408;2023-12-20T09:57:51;97604.31;;;3.58;100.00
38912;BME280;28444;48.056;14.408;2023-12-20T10:00:18;97609.41;;;3.62;100.00
38912;BME280;28444;48.056;14.408;2023-12-20T10:02:50;97600.34;;;3.78;100.00
38912;BME280;28444;48.056;14.408;2023-12-20T10:05:17;97600.97;;;3.84;100.00
38912;BME280;28444;48.056;14.408;2023-12-20T10:07:47;97599.94;;;3.88;100.00
38912;BME280;28444;48.056;14.408;2023-12-20T10:10:15;97597.75;;;3.86;100.00
38912;BME280;28444;48.056;14.408;2023-12-20T10:13:03;97598.41;;;3.92;100.00
38912;BME280;28444;48.056;14.408;2023-12-20T10:15:32;97593.13;;;4.00;100.00
38912;BME280;28444;48.056;14.408;2023-12-20T10:17:59;97586.47;;;4.01;100.00
38912;BME280;28444;48.056;14.408;2023-12-20T10:20:28;97595.53;;;4.03;100.00
38912;BME280;28444;48.056;14.408;2023-12-20T10:22:56;97583.84;;;3.95;100.00
38912;BME280;28444;48.056;14.408;2023-12-20T10:25:24;97593.44;;;4.09;100.00
38912;BME280;28444;48.056;14.408;2023-12-20T10:30:35;97597.13;;;4.25;100.00
38912;BME280;28444;48.056;14.408;2023-12-20T10:33:02;97587.13;;;4.20;100.00
38912;BME280;28444;48.056;14.408;2023-12-20T10:35:29;97583.06;;;4.27;100.00
38912;BME280;28444;48.056;14.408;2023-12-20T10:37:57;97579.75;;;4.34;100.00
38912;BME280;28444;48.056;14.408;2023-12-20T10:40:26;97575.19;;;4.29;100.00
38912;BME280;28444;48.056;14.408;2023-12-20T10:42:54;97570.06;;;4.39;100.00
38912;BME280;28444;48.056;14.408;2023-12-20T10:45:22;97567.69;;;4.48;100.00
38912;BME280;28444;48.056;14.408;2023-12-20T10:47:50;97563.31;;;4.45;100.00
38912;BME280;28444;48.056;14.408;2023-12-20T10:50:19;97570.63;;;4.50;100.00
38912;BME280;28444;48.056;14.408;2023-12-20T10:52:47;97565.72;;;4.62;100.00
38912;BME280;28444;48.056;14.408;2023-12-20T10:55:14;97562.06;;;4.59;100.00
38912;BME280;28444;48.056;14.408;2023-12-20T10:57:41;97561.44;;;4.67;100.00
38912;BME280;28444;48.056;14.408;2023-12-20T11:00:13;97558.31;;;4.63;100.00
38912;BME280;28444;48.056;14.408;2023-12-20T11:02:41;97553.53;;;4.69;100.00
38912;BME280;28444;48.056;14.408;2023-12-20T11:08:08;97555.16;;;4.72;100.00
38912;BME280;28444;48.056;14.408;2023-12-20T11:13:31;97542.56;;;4.61;100.00
38912;BME280;28444;48.056;14.408;2023-12-20T11:15:59;97544.03;;;4.62;100.00
38912;BME280;28444;48.056;14.408;2023-12-20T11:18:30;97545.72;;;4.65;100.00
38912;BME280;28444;48.056;14.408;2023-12-20T11:21:04;97554.97;;;4.70;100.00
38912;BME280;28444;48.056;14.408;2023-12-20T11:23:35;97550.50;;;4.72;100.00
38912;BME280;28444;48.056;14.408;2023-12-20T11:26:02;97546.63;;;4.68;100.00
38912;BME280;28444;48.056;14.408;2023-12-20T11:28:29;97549.03;;;4.71;100.00
38912;BME280;28444;48.056;14.408;2023-12-20T11:30:57;97544.03;;;4.75;100.00
38912;BME280;28444;48.056;14.408;2023-12-20T11:33:36;97544.34;;;4.72;100.00
38912;BME280;28444;48.056;14.408;2023-12-20T11:36:03;97539.13;;;4.74;100.00
38912;BME280;28444;48.056;14.408;2023-12-20T11:38:36;97536.22;;;4.72;100.00
38912;BME280;28444;48.056;14.408;2023-12-20T11:41:06;97539.84;;;4.74;100.00
38912;BME280;28444;48.056;14.408;2023-12-20T11:43:37;97540.28;;;4.65;100.00
38912;BME280;28444;48.056;14.408;2023-12-20T11:46:08;97541.94;;;4.68;100.00
38912;BME280;28444;48.056;14.408;2023-12-20T11:48:39;97529.66;;;4.67;100.00
38912;BME280;28444;48.056;14.408;2023-12-20T11:51:12;97538.94;;;4.58;100.00
38912;BME280;28444;48.056;14.408;2023-12-20T11:53:40;97535.59;;;4.66;100.00
38912;BME280;28444;48.056;14.408;2023-12-20T11:56:09;97541.13;;;4.60;100.00
38912;BME280;28444;48.056;14.408;2023-12-20T11:58:36;97537.91;;;4.62;100.00
38912;BME280;28444;48.056;14.408;2023-12-20T12:01:04;97548.50;;;4.59;100.00
38912;BME280;28444;48.056;14.408;2023-12-20T12:03:35;97541.75;;;4.53;100.00
38912;BME280;28444;48.056;14.408;2023-12-20T12:06:02;97538.00;;;4.56;100.00
38912;BME280;28444;48.056;14.408;2023-12-20T12:08:31;97550.59;;;4.53;100.00
38912;BME280;28444;48.056;14.408;2023-12-20T12:10:58;97543.31;;;4.48;100.00
38912;BME280;28444;48.056;14.408;2023-12-20T12:13:24;97535.19;;;4.48;100.00
38912;BME280;28444;48.056;14.408;2023-12-20T12:15:54;97539.66;;;4.46;100.00
38912;BME280;28444;48.056;14.408;2023-12-20T12:18:20;97538.63;;;4.49;100.00
38912;BME280;28444;48.056;14.408;2023-12-20T12:20:47;97540.81;;;4.50;100.00
38912;BME280;28444;48.056;14.408;2023-12-20T12:23:14;97532.16;;;4.52;100.00
38912;BME280;28444;48.056;14.408;2023-12-20T12:25:48;97535.50;;;4.45;100.00
38912;BME280;28444;48.056;14.408;2023-12-20T12:28:15;97537.56;;;4.39;100.00
38912;BME280;28444;48.056;14.408;2023-12-20T12:30:43;97528.22;;;4.40;100.00
38912;BME280;28444;48.056;14.408;2023-12-20T12:33:19;97528.22;;;4.40;100.00
38912;BME280;28444;48.056;14.408;2023-12-20T12:35:49;97521.84;;;4.37;100.00
38912;BME280;28444;48.056;14.408;2023-12-20T12:38:15;97515.72;;;4.37;100.00
38912;BME280;28444;48.056;14.408;2023-12-20T12:40:43;97516.22;;;4.35;100.00
38912;BME280;28444;48.056;14.408;2023-12-20T12:43:10;97509.88;;;4.46;100.00
38912;BME280;28444;48.056;14.408;2023-12-20T12:45:36;97507.06;;;4.51;100.00
38912;BME280;28444;48.056;14.408;2023-12-20T12:48:03;97505.94;;;4.47;100.00
38912;BME280;28444;48.056;14.408;2023-12-20T12:50:31;97505.41;;;4.48;100.00
38912;BME280;28444;48.056;14.408;2023-12-20T12:52:57;97507.38;;;4.48;100.00
38912;BME280;28444;48.056;14.408;2023-12-20T12:55:24;97494.16;;;4.44;100.00
38912;BME280;28444;48.056;14.408;2023-12-20T12:57:51;97493.94;;;4.42;100.00
38912;BME280;28444;48.056;14.408;2023-12-20T13:00:18;97494.66;;;4.43;100.00
38912;BME280;28444;48.056;14.408;2023-12-20T13:02:45;97485.94;;;4.37;100.00